Time;durP1;ratioP1;P1;durP2;ratioP2;P2;SDS_P1;SDS_P2;PMS_P1;PMS_P2;Temp;Humidity;BMP_temperature;BMP_pressure;BME280_temperature;BME280_humidity;BME280_pressure;Samples;Min_cycle;Max_cycle;Signal;HPM_P1;HPM_P2
2023/07/18 00:00:36;;;;;;;3.40;3.10;;;;;;;23.89;100.00;99575.53;5074397;28;20220;-77
2023/07/18 00:03:03;;;;;;;3.50;3.13;;;;;;;23.92;100.00;99571.41;5074493;28;20192;-76
2023/07/18 00:05:31;;;;;;;3.80;3.50;;;;;;;23.95;100.00;99562.56;5086602;28;20233;-76
2023/07/18 00:07:57;;;;;;;4.20;3.80;;;;;;;23.88;100.00;99568.47;5090954;28;20200;-78
2023/07/18 00:10:24;;;;;;;3.65;3.35;;;;;;;23.76;100.00;99557.25;5099071;28;20215;-76
2023/07/18 00:12:51;;;;;;;4.03;3.72;;;;;;;23.63;100.00;99553.44;5094860;28;20290;-78
2023/07/18 00:15:17;;;;;;;4.88;3.90;;;;;;;23.55;100.00;99551.44;5094039;28;20674;-78
2023/07/18 00:17:44;;;;;;;4.20;3.80;;;;;;;23.41;100.00;99549.81;5078323;28;20661;-78
2023/07/18 00:20:18;;;;;;;5.45;4.03;;;;;;;23.35;100.00;99548.28;5093216;28;20211;-78
2023/07/18 00:22:49;;;;;;;4.90;4.10;;;;;;;23.22;100.00;99545.25;5091117;28;20215;-78
2023/07/18 00:25:19;;;;;;;5.18;4.10;;;;;;;23.14;100.00;99547.91;5110356;28;20293;-76
2023/07/18 00:27:47;;;;;;;5.70;4.50;;;;;;;23.05;100.00;99547.78;5114724;28;20240;-77
2023/07/18 00:30:14;;;;;;;4.45;4.05;;;;;;;22.94;100.00;99556.50;5109183;28;20598;-76
2023/07/18 00:32:42;;;;;;;5.50;4.45;;;;;;;22.86;100.00;99549.00;5113702;28;20218;-76
2023/07/18 00:35:11;;;;;;;4.88;4.32;;;;;;;22.81;100.00;99545.25;5114367;28;20188;-75
2023/07/18 00:37:38;;;;;;;4.68;4.18;;;;;;;22.70;100.00;99552.00;5096299;28;20207;-75
2023/07/18 00:40:12;;;;;;;4.55;4.03;;;;;;;22.61;100.00;99550.25;5088049;28;20251;-76
2023/07/18 00:42:47;;;;;;;4.63;4.22;;;;;;;22.54;100.00;99552.53;5076893;28;20232;-76
2023/07/18 00:45:14;;;;;;;5.35;4.00;;;;;;;22.51;100.00;99558.59;5105591;28;20206;-75
2023/07/18 00:47:43;;;;;;;3.88;3.58;;;;;;;22.43;100.00;99551.94;5094995;28;20248;-75
2023/07/18 00:50:17;;;;;;;4.80;4.40;;;;;;;22.35;100.00;99569.78;5096162;28;20610;-76
2023/07/18 00:52:47;;;;;;;4.82;4.10;;;;;;;22.34;100.00;99565.44;5113214;28;20308;-76
2023/07/18 00:55:15;;;;;;;5.20;4.38;;;;;;;22.27;100.00;99561.47;5114350;28;20679;-76
2023/07/18 00:57:42;;;;;;;5.10;4.70;;;;;;;22.24;100.00;99568.34;5114043;28;20191;-74
2023/07/18 01:00:13;;;;;;;5.65;4.43;;;;;;;22.18;100.00;99566.78;5101015;28;20784;-75
2023/07/18 01:02:44;;;;;;;5.00;4.60;;;;;;;22.10;100.00;99570.19;5108570;28;20640;-75
2023/07/18 01:05:16;;;;;;;4.82;4.38;;;;;;;22.09;100.00;99582.22;5093168;28;20228;-75
2023/07/18 01:07:44;;;;;;;4.55;4.15;;;;;;;22.11;100.00;99579.19;5072406;28;20287;-74
2023/07/18 01:10:23;;;;;;;5.30;4.47;;;;;;;22.10;100.00;99586.56;5055287;28;20202;-74
2023/07/18 01:12:51;;;;;;;5.40;4.90;;;;;;;22.11;100.00;99581.94;5073034;28;20216;-74
2023/07/18 01:15:19;;;;;;;5.03;4.63;;;;;;;22.11;100.00;99587.38;5073239;28;20229;-77
2023/07/18 01:17:47;;;;;;;5.10;4.68;;;;;;;22.07;100.00;99578.97;5073567;28;20686;-75
2023/07/18 01:20:19;;;;;;;7.10;4.80;;;;;;;22.10;100.00;99580.31;5069570;28;20262;-75
2023/07/18 01:22:48;;;;;;;5.07;4.65;;;;;;;22.11;100.00;99581.94;5073761;28;20658;-74
2023/07/18 01:25:16;;;;;;;5.13;4.63;;;;;;;22.21;100.00;99570.84;5072797;28;20196;-74
2023/07/18 01:27:46;;;;;;;4.88;4.47;;;;;;;22.21;100.00;99589.97;5073265;28;20197;-75
2023/07/18 01:30:13;;;;;;;4.90;4.35;;;;;;;22.26;100.00;99601.59;5072904;28;20687;-74
2023/07/18 01:32:41;;;;;;;5.15;4.32;;;;;;;22.30;100.00;99607.28;5063289;28;20215;-75
2023/07/18 01:35:08;;;;;;;5.22;4.38;;;;;;;22.36;100.00;99608.81;5057924;28;20201;-74
2023/07/18 01:37:38;;;;;;;5.10;4.70;;;;;;;22.32;100.00;99611.31;5052222;28;20193;-75
2023/07/18 01:40:12;;;;;;;5.03;4.53;;;;;;;22.31;100.00;99634.25;5072370;28;20201;-75
2023/07/18 01:42:39;;;;;;;4.80;4.50;;;;;;;22.32;100.00;99637.81;5063292;28;20276;-75
2023/07/18 01:45:08;;;;;;;5.05;4.55;;;;;;;22.30;100.00;99629.91;5072589;28;20289;-76
2023/07/18 01:47:38;;;;;;;4.70;4.30;;;;;;;22.22;100.00;99610.66;5063966;28;20219;-75
2023/07/18 01:50:07;;;;;;;4.82;4.43;;;;;;;22.21;100.00;99609.06;5072863;28;20192;-76
2023/07/18 01:52:34;;;;;;;4.57;4.28;;;;;;;22.22;100.00;99597.84;5068342;28;20314;-75
2023/07/18 01:55:03;;;;;;;4.70;4.30;;;;;;;22.37;100.00;99586.69;5072171;28;20189;-76
2023/07/18 01:57:31;;;;;;;4.32;4.03;;;;;;;22.45;100.00;99581.63;5071814;28;20207;-75
2023/07/18 01:59:59;;;;;;;4.78;3.85;;;;;;;22.76;100.00;99583.59;5069319;28;20633;-76
2023/07/18 02:02:29;;;;;;;4.00;3.70;;;;;;;23.01;100.00;99603.34;5067599;28;20258;-74
2023/07/18 02:04:57;;;;;;;4.53;3.53;;;;;;;23.18;100.00;99618.06;5073814;28;20231;-74
2023/07/18 02:07:25;;;;;;;3.72;3.35;;;;;;;23.30;100.00;99633.13;5094116;28;20191;-75
2023/07/18 02:09:52;;;;;;;3.80;3.50;;;;;;;23.24;100.00;99632.41;5096588;28;20231;-76
2023/07/18 02:12:19;;;;;;;3.58;3.28;;;;;;;23.30;100.00;99636.66;5095298;28;20243;-75
2023/07/18 02:14:46;;;;;;;3.72;3.38;;;;;;;23.63;100.00;99638.22;5086534;28;20206;-76
2023/07/18 02:17:13;;;;;;;4.00;3.60;;;;;;;23.49;100.00;99633.88;5091767;28;20670;-76
2023/07/18 02:19:40;;;;;;;3.60;3.30;;;;;;;23.49;100.00;99644.81;5078063;28;20382;-75
2023/07/18 02:22:07;;;;;;;4.00;3.60;;;;;;;23.45;100.00;99649.25;5091340;28;20628;-76
2023/07/18 02:24:34;;;;;;;3.75;3.45;;;;;;;23.34;100.00;99653.25;5077474;28;20222;-75
2023/07/18 02:27:02;;;;;;;4.22;3.90;;;;;;;23.26;100.00;99652.06;5060347;28;20205;-76
2023/07/18 02:29:29;;;;;;;4.05;3.30;;;;;;;23.20;100.00;99654.06;5079297;28;20662;-76
2023/07/18 02:31:56;;;;;;;3.72;3.42;;;;;;;23.20;100.00;99658.72;5089901;28;20283;-75
2023/07/18 02:34:25;;;;;;;4.55;3.50;;;;;;;23.07;100.00;99654.88;5100537;28;20215;-76
2023/07/18 02:36:52;;;;;;;3.88;3.58;;;;;;;23.08;100.00;99658.41;5086783;28;20235;-76
2023/07/18 02:39:20;;;;;;;4.40;4.00;;;;;;;22.99;100.00;99661.03;5104196;28;20326;-77
2023/07/18 02:41:47;;;;;;;4.00;3.70;;;;;;;22.98;100.00;99672.25;5108089;28;20188;-75
2023/07/18 02:44:13;;;;;;;4.10;3.67;;;;;;;22.82;100.00;99677.16;5100932;28;20191;-76
2023/07/18 02:46:41;;;;;;;4.28;3.90;;;;;;;22.74;100.00;99684.13;5096665;28;20286;-75
2023/07/18 02:49:07;;;;;;;5.32;4.07;;;;;;;22.73;100.00;99677.03;5098476;28;20190;-76
2023/07/18 02:51:34;;;;;;;4.10;3.70;;;;;;;22.62;100.00;99682.94;5109658;28;20654;-76
2023/07/18 02:54:00;;;;;;;4.32;3.60;;;;;;;22.59;100.00;99692.50;5106723;28;20707;-76
2023/07/18 02:56:27;;;;;;;5.38;3.92;;;;;;;22.51;100.00;99686.91;5088849;28;20196;-76
2023/07/18 02:58:54;;;;;;;4.78;4.25;;;;;;;22.48;100.00;99692.97;5093272;28;20198;-76
2023/07/18 03:01:20;;;;;;;4.40;3.88;;;;;;;22.59;100.00;99700.69;5080068;28;20199;-76
2023/07/18 03:03:47;;;;;;;4.18;3.80;;;;;;;22.56;100.00;99690.38;5111973;28;20250;-76
2023/07/18 03:06:15;;;;;;;4.05;3.72;;;;;;;22.57;100.00;99681.09;5093135;28;20239;-77
2023/07/18 03:08:41;;;;;;;4.30;3.90;;;;;;;22.59;100.00;99687.06;5084609;28;20649;-76
2023/07/18 03:11:08;;;;;;;4.63;4.13;;;;;;;22.56;100.00;99684.94;5093054;28;20191;-76
2023/07/18 03:13:36;;;;;;;4.50;4.07;;;;;;;22.52;100.00;99688.53;5106331;28;20216;-75
2023/07/18 03:16:04;;;;;;;4.20;3.80;;;;;;;22.51;100.00;99698.66;5097977;28;20199;-76
2023/07/18 03:18:31;;;;;;;4.82;4.32;;;;;;;22.54;100.00;99697.22;5088130;28;20608;-75
2023/07/18 03:20:58;;;;;;;4.70;4.30;;;;;;;22.44;100.00;99698.22;5077867;28;20224;-76
2023/07/18 03:23:28;;;;;;;4.57;4.18;;;;;;;22.43;100.00;99715.72;5103032;28;20296;-75
2023/07/18 03:25:55;;;;;;;4.65;4.25;;;;;;;22.42;100.00;99718.72;5111419;28;20236;-75
2023/07/18 03:28:22;;;;;;;4.45;4.00;;;;;;;22.49;100.00;99719.19;5091917;28;20669;-75
2023/07/18 03:30:49;;;;;;;4.20;3.80;;;;;;;22.46;100.00;99711.56;5107169;28;20287;-76
2023/07/18 03:33:16;;;;;;;4.60;4.20;;;;;;;22.40;100.00;99705.34;5107093;28;20220;-75
2023/07/18 03:35:43;;;;;;;4.75;3.88;;;;;;;22.42;100.00;99708.63;5106890;28;20194;-75
2023/07/18 03:38:09;;;;;;;4.18;3.78;;;;;;;22.38;100.00;99700.22;5107433;28;20192;-75
2023/07/18 03:40:36;;;;;;;4.65;4.25;;;;;;;22.38;100.00;99699.41;5106753;28;20184;-74
2023/07/18 03:43:03;;;;;;;3.97;3.67;;;;;;;22.43;100.00;99696.59;5103336;28;20686;-75
2023/07/18 03:45:30;;;;;;;4.53;4.13;;;;;;;22.48;100.00;99696.53;5080966;28;20253;-75
2023/07/18 03:47:57;;;;;;;5.00;4.13;;;;;;;22.48;100.00;99707.44;5106762;28;20197;-76
2023/07/18 03:50:23;;;;;;;4.70;3.83;;;;;;;22.52;100.00;99710.38;5102297;28;20286;-76
2023/07/18 03:52:50;;;;;;;5.10;3.90;;;;;;;22.53;100.00;99712.00;5102345;28;20214;-75
2023/07/18 03:55:17;;;;;;;7.40;4.30;;;;;;;22.56;100.00;99720.41;5099801;28;20563;-76
2023/07/18 03:57:44;;;;;;;5.60;3.88;;;;;;;22.57;100.00;99716.59;5103283;28;20200;-75
2023/07/18 04:00:16;;;;;;;4.25;3.85;;;;;;;22.64;100.00;99722.47;5093964;28;20199;-75
2023/07/18 04:02:45;;;;;;;4.32;3.92;;;;;;;22.67;100.00;99727.38;5088596;28;20255;-75
2023/07/18 04:05:14;;;;;;;4.22;3.83;;;;;;;22.78;100.00;99720.66;5114725;28;20232;-75
2023/07/18 04:07:41;;;;;;;4.78;3.83;;;;;;;23.50;100.00;99723.81;5114226;28;20184;-76
2023/07/18 04:10:08;;;;;;;5.18;3.70;;;;;;;24.86;100.00;99730.19;5112189;28;20199;-75
2023/07/18 04:12:35;;;;;;;5.43;3.78;;;;;;;25.90;100.00;99726.91;5114970;28;20224;-76
2023/07/18 04:15:02;;;;;;;5.13;3.80;;;;;;;26.72;100.00;99720.59;5115252;28;20247;-75
2023/07/18 04:17:30;;;;;;;5.25;4.15;;;;;;;27.51;100.00;99729.25;5111530;28;20191;-76
2023/07/18 04:19:59;;;;;;;4.07;3.67;;;;;;;28.30;100.00;99730.47;5102527;28;20710;-75
2023/07/18 04:22:31;;;;;;;5.15;4.00;;;;;;;28.91;100.00;99739.09;5114558;28;20621;-74
2023/07/18 04:24:58;;;;;;;5.15;4.38;;;;;;;29.48;97.35;99742.75;5099257;28;20200;-75
2023/07/18 04:27:27;;;;;;;7.22;4.10;;;;;;;29.73;94.37;99744.41;5093052;28;20612;-75
2023/07/18 04:29:53;;;;;;;3.70;3.40;;;;;;;30.08;92.67;99752.25;5091912;28;20193;-77
2023/07/18 04:32:20;;;;;;;5.43;3.67;;;;;;;29.86;89.72;99753.50;5114062;28;20184;-77
2023/07/18 04:34:48;;;;;;;4.78;4.30;;;;;;;29.09;90.86;99755.16;5114729;28;20215;-77
2023/07/18 04:37:15;;;;;;;4.95;4.10;;;;;;;28.14;92.90;99759.72;5114269;28;20259;-76
2023/07/18 04:39:41;;;;;;;5.45;3.50;;;;;;;27.34;91.61;99761.47;5109653;28;20185;-77
2023/07/18 04:42:08;;;;;;;6.38;3.90;;;;;;;26.78;88.50;99756.97;5092724;28;20188;-75
2023/07/18 04:44:35;;;;;;;4.60;4.05;;;;;;;26.40;93.18;99759.53;5111856;28;20662;-74
2023/07/18 04:47:01;;;;;;;5.00;3.60;;;;;;;25.92;87.58;99762.28;5101697;28;20234;-76
2023/07/18 04:49:29;;;;;;;5.03;3.70;;;;;;;25.73;89.60;99766.09;5086190;28;20604;-75
2023/07/18 04:51:55;;;;;;;4.85;3.78;;;;;;;25.69;92.50;99772.53;5092633;28;20200;-75
2023/07/18 04:54:22;;;;;;;4.35;3.72;;;;;;;25.63;93.91;99771.84;5089253;28;20212;-75
2023/07/18 04:56:53;;;;;;;5.03;3.80;;;;;;;25.56;88.66;99776.19;5088807;28;20277;-75
2023/07/18 04:59:21;;;;;;;4.38;3.47;;;;;;;25.51;87.54;99782.59;5091059;28;20211;-77
2023/07/18 05:01:51;;;;;;;6.00;3.83;;;;;;;25.55;85.02;99780.03;5092698;28;20271;-75
2023/07/18 05:04:18;;;;;;;10.52;3.70;;;;;;;25.16;83.81;99781.53;5090677;28;20257;-75
2023/07/18 05:06:45;;;;;;;4.45;3.30;;;;;;;25.24;84.04;99780.00;5076117;28;20592;-75
2023/07/18 05:09:12;;;;;;;6.72;3.63;;;;;;;25.33;83.57;99789.09;5073078;28;20189;-78
2023/07/18 05:11:38;;;;;;;4.13;3.70;;;;;;;25.40;83.95;99789.44;5073231;28;20251;-76
2023/07/18 05:14:05;;;;;;;4.18;3.47;;;;;;;25.51;83.07;99799.03;5073522;28;20240;-74
2023/07/18 05:16:32;;;;;;;6.47;3.67;;;;;;;25.54;82.24;99795.69;5073047;28;20280;-76
2023/07/18 05:18:58;;;;;;;4.10;3.70;;;;;;;25.59;82.86;99795.56;5070177;28;20663;-76
2023/07/18 05:21:25;;;;;;;5.57;3.53;;;;;;;25.49;81.73;99786.75;5071640;28;20758;-76
2023/07/18 05:23:52;;;;;;;3.92;3.53;;;;;;;25.68;80.42;99799.16;5072574;28;20671;-76
2023/07/18 05:26:18;;;;;;;4.53;3.83;;;;;;;25.70;79.61;99796.09;5072225;28;20216;-76
2023/07/18 05:28:45;;;;;;;4.55;3.60;;;;;;;25.69;79.74;99794.47;5072841;28;20225;-76
2023/07/18 05:31:11;;;;;;;5.28;3.90;;;;;;;25.64;78.07;99800.91;5068660;28;20189;-76
2023/07/18 05:33:38;;;;;;;5.10;3.78;;;;;;;25.67;78.63;99804.94;5072267;28;20247;-77
2023/07/18 05:36:05;;;;;;;6.10;3.75;;;;;;;25.80;78.52;99804.06;5072071;28;20227;-76
2023/07/18 05:38:31;;;;;;;6.90;3.55;;;;;;;25.78;77.09;99800.81;5072751;28;20197;-76
2023/07/18 05:40:58;;;;;;;5.70;3.42;;;;;;;25.70;77.48;99799.66;5072431;28;20195;-75
2023/07/18 05:43:25;;;;;;;3.83;3.40;;;;;;;25.81;75.95;99805.66;5072277;28;20320;-76
2023/07/18 05:45:51;;;;;;;5.80;3.67;;;;;;;25.88;75.30;99797.00;5069900;28;20243;-77
2023/07/18 05:48:18;;;;;;;4.13;3.30;;;;;;;25.92;72.42;99800.72;5070809;28;20193;-76
2023/07/18 05:50:45;;;;;;;4.30;3.42;;;;;;;25.79;73.55;99802.44;5072215;28;20562;-76
2023/07/18 05:53:11;;;;;;;5.97;3.72;;;;;;;25.93;70.79;99800.41;5068718;28;20319;-77
2023/07/18 05:55:38;;;;;;;5.55;3.50;;;;;;;25.99;72.71;99809.31;5072221;28;20295;-76
2023/07/18 05:58:06;;;;;;;4.85;3.70;;;;;;;26.14;72.31;99815.16;5071362;28;20193;-77
2023/07/18 06:00:33;;;;;;;4.72;3.85;;;;;;;26.21;72.63;99807.31;5071534;28;20239;-76
2023/07/18 06:03:00;;;;;;;4.47;3.50;;;;;;;26.18;70.51;99818.06;5070811;28;20247;-76
2023/07/18 06:05:27;;;;;;;4.88;3.63;;;;;;;26.22;71.13;99816.38;5070407;28;20229;-75
2023/07/18 06:07:53;;;;;;;5.28;3.63;;;;;;;26.23;69.53;99815.22;5070723;28;20666;-77
2023/07/18 06:10:20;;;;;;;5.47;3.58;;;;;;;26.34;69.38;99816.56;5071913;28;20197;-76
2023/07/18 06:12:46;;;;;;;4.78;3.60;;;;;;;26.33;68.80;99823.16;5072242;28;20284;-75
2023/07/18 06:15:13;;;;;;;5.63;3.38;;;;;;;26.47;69.40;99821.09;5071822;28;20230;-77
2023/07/18 06:17:40;;;;;;;4.38;3.50;;;;;;;26.45;68.73;99820.63;5071849;28;20196;-77
2023/07/18 06:20:13;;;;;;;6.22;3.30;;;;;;;26.70;67.47;99822.59;5071820;28;20266;-78
2023/07/18 06:22:41;;;;;;;5.95;3.25;;;;;;;26.73;66.72;99823.91;5071923;28;20272;-78
2023/07/18 06:25:08;;;;;;;4.50;3.30;;;;;;;26.70;64.96;99828.09;5071990;28;20283;-78
2023/07/18 06:27:35;;;;;;;5.07;3.28;;;;;;;26.64;64.55;99823.09;5071772;28;20663;-79
2023/07/18 06:30:02;;;;;;;4.15;2.95;;;;;;;26.61;62.80;99829.22;5071970;28;20674;-78
2023/07/18 06:32:30;;;;;;;4.88;3.42;;;;;;;26.64;63.11;99832.13;5071811;28;20222;-78
2023/07/18 06:34:56;;;;;;;5.80;3.90;;;;;;;26.69;63.71;99823.72;5071795;28;20217;-78
2023/07/18 06:37:31;;;;;;;4.68;3.47;;;;;;;26.55;61.85;99825.03;5071012;28;20294;-78
2023/07/18 06:39:58;;;;;;;5.88;3.75;;;;;;;26.56;61.90;99826.63;5071873;28;20193;-76
2023/07/18 06:42:25;;;;;;;4.40;3.67;;;;;;;26.74;62.80;99822.75;5069109;28;20209;-77
2023/07/18 06:44:51;;;;;;;3.38;3.05;;;;;;;26.73;62.55;99830.22;5068846;28;20201;-76
2023/07/18 06:47:18;;;;;;;4.70;3.67;;;;;;;26.83;62.20;99836.53;5071158;28;20197;-76
2023/07/18 06:49:45;;;;;;;3.92;3.33;;;;;;;26.69;62.46;99831.16;5065379;28;20243;-76
2023/07/18 06:52:11;;;;;;;3.92;3.50;;;;;;;26.87;63.79;99823.78;5069018;28;20197;-76
2023/07/18 06:54:38;;;;;;;6.78;3.42;;;;;;;26.89;62.60;99832.50;5071459;28;20262;-76
2023/07/18 06:57:05;;;;;;;4.18;3.20;;;;;;;26.96;62.05;99832.84;5071733;28;20583;-76
2023/07/18 06:59:32;;;;;;;5.63;3.65;;;;;;;26.74;62.01;99820.81;5070769;28;20591;-76
2023/07/18 07:01:58;;;;;;;6.18;3.67;;;;;;;26.74;62.20;99826.31;5071550;28;20204;-76
2023/07/18 07:04:25;;;;;;;3.88;3.42;;;;;;;26.58;63.13;99825.19;5071284;28;20249;-75
2023/07/18 07:06:52;;;;;;;4.25;3.38;;;;;;;26.80;63.32;99826.97;5109783;28;20246;-76
2023/07/18 07:09:18;;;;;;;4.43;3.33;;;;;;;26.88;61.10;99825.38;5111660;28;20228;-74
2023/07/18 07:11:45;;;;;;;5.53;3.70;;;;;;;26.67;62.22;99823.25;5116019;28;20219;-75
2023/07/18 07:14:12;;;;;;;5.45;3.40;;;;;;;26.66;63.51;99832.63;5115875;28;20216;-74
2023/07/18 07:16:39;;;;;;;4.53;3.40;;;;;;;26.76;64.12;99827.94;5103631;28;20231;-75
2023/07/18 07:19:06;;;;;;;6.22;3.60;;;;;;;26.98;63.78;99828.63;5107686;28;20616;-76
2023/07/18 07:21:33;;;;;;;5.28;3.30;;;;;;;27.16;63.54;99830.25;5113670;28;20257;-77
2023/07/18 07:24:00;;;;;;;7.05;3.90;;;;;;;27.08;62.75;99828.31;5095881;28;20193;-75
2023/07/18 07:26:27;;;;;;;6.43;3.20;;;;;;;26.74;62.86;99828.25;5112003;28;20195;-75
2023/07/18 07:28:53;;;;;;;6.22;3.53;;;;;;;26.94;63.66;99827.66;5114852;28;20225;-75
2023/07/18 07:31:20;;;;;;;4.30;3.20;;;;;;;26.96;63.27;99822.66;5109713;28;20218;-75
2023/07/18 07:33:48;;;;;;;4.45;3.40;;;;;;;27.22;63.60;99827.34;5113487;28;20216;-75
2023/07/18 07:36:15;;;;;;;4.68;3.65;;;;;;;27.20;62.32;99821.38;5106241;28;20192;-74
2023/07/18 07:38:42;;;;;;;5.80;3.42;;;;;;;27.16;62.35;99822.00;5096106;28;20196;-77
2023/07/18 07:41:08;;;;;;;4.75;3.50;;;;;;;27.45;61.97;99815.00;5115383;28;20195;-74
2023/07/18 07:43:35;;;;;;;6.60;3.65;;;;;;;27.67;63.20;99816.78;5084269;28;20666;-77
2023/07/18 07:46:02;;;;;;;5.45;3.30;;;;;;;27.72;62.74;99819.31;5115306;28;20600;-74
2023/07/18 07:48:28;;;;;;;3.83;3.40;;;;;;;27.64;59.78;99828.44;5099390;28;20219;-77
2023/07/18 07:50:58;;;;;;;5.05;3.78;;;;;;;27.48;61.04;99817.13;5105959;28;20192;-76
2023/07/18 07:53:25;;;;;;;5.95;3.38;;;;;;;27.46;61.19;99824.88;5103964;28;20211;-77
2023/07/18 07:55:52;;;;;;;6.13;3.30;;;;;;;27.38;60.68;99817.44;5098209;28;20239;-77
2023/07/18 07:58:18;;;;;;;4.18;3.70;;;;;;;27.25;60.04;99810.19;5103932;28;20215;-75
2023/07/18 08:00:45;;;;;;;3.90;3.25;;;;;;;27.03;60.79;99809.22;5102233;28;20230;-79
2023/07/18 08:03:12;;;;;;;4.40;3.35;;;;;;;27.25;59.26;99818.44;5107565;28;20283;-78
2023/07/18 08:05:39;;;;;;;5.05;3.25;;;;;;;27.37;57.65;99813.09;5091545;28;20325;-77
2023/07/18 08:08:06;;;;;;;5.40;3.88;;;;;;;27.51;57.18;99810.97;5073866;28;20621;-75
2023/07/18 08:10:32;;;;;;;7.32;3.70;;;;;;;27.69;58.27;99807.03;5069699;28;20212;-74
2023/07/18 08:12:59;;;;;;;5.30;3.33;;;;;;;27.88;58.82;99809.41;5074117;28;20200;-77
2023/07/18 08:15:27;;;;;;;5.05;3.30;;;;;;;28.02;58.05;99807.25;5071271;28;20298;-75
2023/07/18 08:17:57;;;;;;;4.93;3.40;;;;;;;27.73;58.28;99801.69;5074017;28;20201;-76
2023/07/18 08:20:23;;;;;;;4.93;3.35;;;;;;;28.04;58.71;99805.75;5074485;28;20193;-76
2023/07/18 08:22:50;;;;;;;7.38;3.30;;;;;;;27.95;56.06;99795.91;5074098;28;20656;-78
2023/07/18 08:25:17;;;;;;;4.90;3.80;;;;;;;28.11;55.28;99797.03;5073729;28;20258;-76
2023/07/18 08:27:45;;;;;;;5.03;3.47;;;;;;;28.12;55.67;99789.56;5073817;28;20193;-78
2023/07/18 08:30:11;;;;;;;6.38;3.90;;;;;;;27.98;55.64;99785.06;5073152;28;20342;-77
2023/07/18 08:32:40;;;;;;;9.57;3.58;;;;;;;28.03;55.27;99778.56;5073408;28;20235;-76
2023/07/18 08:35:07;;;;;;;3.22;2.80;;;;;;;28.11;54.12;99785.19;5070117;28;20644;-76
2023/07/18 08:37:34;;;;;;;5.60;3.20;;;;;;;28.12;54.87;99765.59;5067750;28;20242;-76
2023/07/18 08:40:01;;;;;;;5.53;3.67;;;;;;;28.25;55.61;99769.25;5073219;28;20185;-76
2023/07/18 08:42:28;;;;;;;5.72;3.30;;;;;;;27.93;56.23;99778.94;5073739;28;20242;-75
2023/07/18 08:44:55;;;;;;;5.07;2.88;;;;;;;27.99;53.62;99775.69;5073617;28;20276;-75
2023/07/18 08:47:22;;;;;;;6.20;3.40;;;;;;;28.30;51.87;99769.88;5056099;28;20716;-78
2023/07/18 08:49:49;;;;;;;5.80;3.33;;;;;;;28.21;52.40;99769.09;5073529;28;20193;-75
2023/07/18 08:52:16;;;;;;;3.10;2.80;;;;;;;28.53;52.41;99764.03;5055013;28;20212;-75
2023/07/18 08:54:42;;;;;;;3.72;2.83;;;;;;;28.62;52.10;99765.59;5073575;28;20259;-75
2023/07/18 08:57:10;;;;;;;5.45;3.20;;;;;;;28.66;51.49;99761.00;5073983;28;20308;-74
2023/07/18 08:59:39;;;;;;;6.22;3.00;;;;;;;28.92;51.48;99758.09;5072009;28;20720;-78
2023/07/18 09:02:05;;;;;;;4.78;2.92;;;;;;;28.77;50.50;99756.75;5069124;28;20193;-75
2023/07/18 09:04:32;;;;;;;5.35;3.13;;;;;;;28.90;50.50;99752.09;5073401;28;20239;-76
2023/07/18 09:07:00;;;;;;;3.17;2.88;;;;;;;28.92;49.78;99749.81;5101539;28;20732;-77
2023/07/18 09:09:27;;;;;;;5.07;2.90;;;;;;;29.05;50.56;99750.66;5085768;28;20200;-76
2023/07/18 09:12:02;;;;;;;5.32;3.10;;;;;;;28.75;48.79;99734.19;5106760;28;20227;-76
2023/07/18 09:14:34;;;;;;;3.65;2.72;;;;;;;28.84;47.17;99725.84;5112673;28;20264;-75
2023/07/18 09:17:05;;;;;;;4.85;2.78;;;;;;;29.00;48.49;99726.84;5110070;28;20220;-76
2023/07/18 09:19:41;;;;;;;5.28;2.90;;;;;;;28.81;46.58;99721.03;5110025;28;20708;-78
2023/07/18 09:22:13;;;;;;;4.13;2.50;;;;;;;29.07;46.34;99712.50;5083160;28;20245;-75
2023/07/18 09:24:41;;;;;;;3.95;3.03;;;;;;;29.06;47.68;99710.91;5113430;28;20215;-75
2023/07/18 09:27:18;;;;;;;4.55;3.20;;;;;;;28.95;47.09;99720.72;5106636;28;20211;-76
2023/07/18 09:29:46;;;;;;;5.50;3.10;;;;;;;28.98;49.79;99722.81;5095929;28;20283;-78
2023/07/18 09:32:17;;;;;;;6.15;3.20;;;;;;;28.69;49.47;99720.94;5093297;28;20208;-77
2023/07/18 09:34:54;;;;;;;7.05;3.50;;;;;;;28.57;50.33;99720.88;5095715;28;20212;-77
2023/07/18 09:37:21;;;;;;;4.35;2.95;;;;;;;28.56;50.92;99713.75;5092047;28;20609;-77
2023/07/18 09:39:48;;;;;;;4.55;2.97;;;;;;;28.77;49.41;99698.84;5089655;28;20189;-78
2023/07/18 09:42:16;;;;;;;4.63;3.03;;;;;;;28.84;50.91;99696.34;5089729;28;21848;-77
2023/07/18 09:44:50;;;;;;;3.80;2.90;;;;;;;29.28;50.25;99699.44;5089524;28;20215;-78
2023/07/18 09:47:19;;;;;;;3.85;3.28;;;;;;;29.52;47.87;99687.69;5094404;28;20222;-77
2023/07/18 09:49:46;;;;;;;3.22;2.80;;;;;;;29.04;49.46;99691.13;5112777;28;20195;-77
2023/07/18 09:52:15;;;;;;;3.47;2.90;;;;;;;29.55;49.31;99684.22;5094517;28;20204;-78
2023/07/18 09:54:43;;;;;;;5.15;3.40;;;;;;;29.66;48.81;99679.88;5112770;28;20203;-75
2023/07/18 09:57:10;;;;;;;4.18;3.10;;;;;;;29.80;47.88;99666.50;5094668;28;20188;-78
2023/07/18 09:59:38;;;;;;;4.03;3.15;;;;;;;29.78;48.20;99668.81;5112748;28;20252;-76
2023/07/18 10:02:10;;;;;;;3.80;3.10;;;;;;;29.88;47.52;99662.00;5112717;28;20658;-78
2023/07/18 10:04:38;;;;;;;3.92;3.17;;;;;;;29.58;47.56;99662.25;5092602;28;20288;-77
2023/07/18 10:07:07;;;;;;;3.85;3.08;;;;;;;29.50;47.02;99663.16;5065622;28;20249;-77
2023/07/18 10:09:35;;;;;;;5.88;3.33;;;;;;;30.10;48.93;99656.81;5056572;28;20242;-76
2023/07/18 10:12:01;;;;;;;5.00;3.33;;;;;;;29.98;49.59;99659.63;5072702;28;20268;-77
2023/07/18 10:14:29;;;;;;;5.40;3.40;;;;;;;30.42;50.03;99657.00;5072160;28;20244;-78
2023/07/18 10:16:59;;;;;;;5.43;3.33;;;;;;;29.85;46.84;99649.72;5072239;28;20217;-77
2023/07/18 10:19:26;;;;;;;4.35;3.22;;;;;;;30.23;47.92;99651.28;5064796;28;20194;-77
2023/07/18 10:21:53;;;;;;;4.05;3.45;;;;;;;29.53;48.76;99639.59;5064425;28;20220;-77
2023/07/18 10:24:20;;;;;;;6.28;3.35;;;;;;;29.52;48.39;99644.31;5060566;28;20628;-76
2023/07/18 10:27:08;;;;;;;5.40;3.33;;;;;;;29.86;50.33;99631.19;5069103;28;20219;-77
2023/07/18 10:29:41;;;;;;;4.80;3.38;;;;;;;30.07;48.82;99631.84;5070277;28;20196;-77
2023/07/18 10:32:11;;;;;;;3.28;2.95;;;;;;;30.28;48.64;99632.50;5069079;28;20185;-77
2023/07/18 10:34:38;;;;;;;4.65;3.47;;;;;;;30.04;48.65;99624.28;5071561;28;20213;-77
2023/07/18 10:37:08;;;;;;;6.40;3.47;;;;;;;29.88;47.40;99618.66;5071576;28;20224;-77
2023/07/18 10:39:43;;;;;;;5.55;3.50;;;;;;;30.53;46.92;99622.19;5070946;28;20197;-76
2023/07/18 10:42:20;;;;;;;6.00;3.58;;;;;;;30.97;46.78;99614.69;5071693;28;20262;-78
2023/07/18 10:44:47;;;;;;;3.90;3.45;;;;;;;31.36;47.41;99618.47;5070645;28;20200;-78
2023/07/18 10:47:16;;;;;;;4.75;3.20;;;;;;;31.70;46.74;99603.91;5071537;28;20279;-78
2023/07/18 10:49:45;;;;;;;4.68;3.40;;;;;;;31.55;48.51;99609.41;5071290;28;20200;-77
2023/07/18 10:52:12;;;;;;;4.32;3.17;;;;;;;31.81;45.52;99601.38;5071362;28;20217;-77
2023/07/18 10:54:51;;;;;;;5.88;3.90;;;;;;;31.59;44.78;99596.50;5061655;28;20691;-78
2023/07/18 10:57:29;;;;;;;6.30;3.47;;;;;;;31.87;44.58;99589.63;5071029;28;20280;-78
2023/07/18 10:59:56;;;;;;;5.90;4.05;;;;;;;31.44;45.48;99579.53;5067586;28;20282;-77
2023/07/18 11:02:25;;;;;;;4.70;3.22;;;;;;;31.75;44.91;99584.22;5071317;28;20200;-77
2023/07/18 11:04:52;;;;;;;5.00;3.67;;;;;;;31.61;45.84;99572.81;5050021;28;20235;-78
2023/07/18 11:07:31;;;;;;;4.28;3.30;;;;;;;31.98;44.95;99578.78;5107083;28;20220;-76
2023/07/18 11:09:58;;;;;;;4.50;3.22;;;;;;;32.24;45.44;99576.19;5106976;28;20202;-77
2023/07/18 11:12:24;;;;;;;6.55;3.58;;;;;;;32.58;44.14;99570.91;5112116;28;20678;-76
2023/07/18 11:14:51;;;;;;;4.35;3.53;;;;;;;33.08;43.44;99567.88;5109301;28;20245;-77
2023/07/18 11:17:18;;;;;;;3.60;3.20;;;;;;;33.23;42.85;99566.16;5110962;28;20678;-77
2023/07/18 11:19:48;;;;;;;4.43;3.35;;;;;;;33.85;42.40;99559.19;5098560;28;20205;-77
2023/07/18 11:22:15;;;;;;;5.38;3.78;;;;;;;34.30;41.90;99560.16;5074387;28;20221;-78
2023/07/18 11:24:43;;;;;;;5.35;3.00;;;;;;;34.83;40.85;99552.41;5084061;28;20233;-77
2023/07/18 11:27:14;;;;;;;5.43;3.70;;;;;;;35.09;41.24;99557.78;5059139;28;20219;-78
2023/07/18 11:29:57;;;;;;;5.35;3.63;;;;;;;35.14;39.98;99548.28;5062111;28;20217;-77
2023/07/18 11:32:38;;;;;;;4.10;3.70;;;;;;;34.73;40.24;99540.00;5077863;28;20203;-78